createdAt,value
2023-03-28T00:00:50.320Z,1.46
2023-03-28T00:01:50.318Z,1.47
2023-03-28T00:02:50.336Z,1.44
2023-03-28T00:03:50.348Z,1.44
2023-03-28T00:04:50.283Z,1.43
2023-03-28T00:05:50.362Z,1.44
2023-03-28T00:06:50.270Z,1.43
2023-03-28T00:07:50.258Z,1.43
2023-03-28T00:08:50.262Z,1.44
2023-03-28T00:09:50.248Z,1.46
2023-03-28T00:10:50.228Z,1.46
2023-03-28T00:11:50.216Z,1.50
2023-03-28T00:12:50.205Z,1.50
2023-03-28T00:13:50.221Z,1.52
2023-03-28T00:14:50.177Z,1.50
2023-03-28T00:15:50.220Z,1.50
2023-03-28T00:16:50.161Z,1.47
2023-03-28T00:17:50.225Z,1.47
2023-03-28T00:18:50.162Z,1.50
2023-03-28T00:19:50.150Z,1.51
2023-03-28T00:20:50.188Z,1.47
2023-03-28T00:21:50.156Z,1.51
2023-03-28T00:22:50.100Z,1.52
2023-03-28T00:23:50.100Z,1.52
2023-03-28T00:24:50.095Z,1.54
2023-03-28T00:25:50.084Z,1.55
2023-03-28T00:26:50.059Z,1.54
2023-03-28T00:27:50.064Z,1.55
2023-03-28T00:28:50.046Z,1.54
2023-03-28T00:29:50.096Z,1.54
2023-03-28T00:30:50.106Z,1.51
2023-03-28T00:31:50.096Z,1.51
2023-03-28T00:32:50.022Z,1.50
2023-03-28T00:33:50.071Z,1.47
2023-03-28T00:34:49.977Z,1.46
2023-03-28T00:35:49.986Z,1.42
2023-03-28T00:36:49.987Z,1.40
2023-03-28T00:37:49.942Z,1.40
2023-03-28T00:38:49.972Z,1.39
2023-03-28T00:39:49.962Z,1.39
2023-03-28T00:40:49.910Z,1.34
2023-03-28T00:41:49.916Z,1.37
2023-03-28T00:42:49.891Z,1.40
2023-03-28T00:43:49.927Z,1.42
2023-03-28T00:44:49.902Z,1.40
2023-03-28T00:45:59.176Z,1.39
2023-03-28T00:46:49.976Z,1.40
2023-03-28T00:47:49.862Z,1.37
2023-03-28T00:48:49.843Z,1.40
2023-03-28T00:49:49.869Z,1.40
2023-03-28T00:50:49.818Z,1.40
2023-03-28T00:51:49.820Z,1.44
2023-03-28T00:52:49.826Z,1.47
2023-03-28T00:53:49.793Z,1.51
2023-03-28T00:54:49.779Z,1.52
2023-03-28T00:55:49.775Z,1.52
2023-03-28T00:56:49.790Z,1.55
2023-03-28T00:57:49.775Z,1.55
2023-03-28T00:58:49.741Z,1.57
2023-03-28T00:59:49.723Z,1.57
2023-03-28T01:00:49.709Z,1.57
2023-03-28T01:01:49.789Z,1.57
2023-03-28T01:02:49.785Z,1.55
2023-03-28T01:03:49.771Z,1.60
2023-03-28T01:04:49.693Z,1.61
2023-03-28T01:05:49.664Z,1.62
2023-03-28T01:06:49.656Z,1.62
2023-03-28T01:07:49.742Z,1.64
2023-03-28T01:08:49.640Z,1.65
2023-03-28T01:09:49.609Z,1.64
2023-03-28T01:10:49.614Z,1.65
2023-03-28T01:11:49.613Z,1.62
2023-03-28T01:12:49.604Z,1.60
2023-03-28T01:13:49.597Z,1.58
2023-03-28T01:14:49.561Z,1.55
2023-03-28T01:15:49.624Z,1.57
2023-03-28T01:16:49.546Z,1.58
2023-03-28T01:17:49.543Z,1.57
2023-03-28T01:18:49.537Z,1.55
2023-03-28T01:19:49.542Z,1.58
2023-03-28T01:20:49.501Z,1.58
2023-03-28T01:21:49.498Z,1.60
2023-03-28T01:22:56.218Z,1.60
2023-03-28T01:23:49.511Z,1.58
2023-03-28T01:24:49.462Z,1.57
2023-03-28T01:25:49.473Z,1.58
2023-03-28T01:26:49.446Z,1.60
2023-03-28T01:27:49.418Z,1.61
2023-03-28T01:28:49.451Z,1.58
2023-03-28T01:29:49.410Z,1.60
2023-03-28T01:30:49.440Z,1.57
2023-03-28T01:31:49.416Z,1.55
2023-03-28T01:32:49.401Z,1.51
2023-03-28T01:33:49.390Z,1.50
2023-03-28T01:34:49.381Z,1.47
2023-03-28T01:35:49.395Z,1.46
2023-03-28T01:36:49.347Z,1.43
2023-03-28T01:37:49.329Z,1.40
2023-03-28T01:38:49.367Z,1.37
2023-03-28T01:39:49.329Z,1.39
2023-03-28T01:40:49.336Z,1.37
2023-03-28T01:41:49.293Z,1.33
2023-03-28T01:42:49.286Z,1.32
2023-03-28T01:43:49.314Z,1.29
2023-03-28T01:44:49.364Z,1.26
2023-03-28T01:45:49.263Z,1.25
2023-03-28T01:46:49.241Z,1.28
2023-03-28T01:47:49.302Z,1.24
2023-03-28T01:48:49.221Z,1.24
2023-03-28T01:49:49.213Z,1.24
2023-03-28T01:50:49.266Z,1.22
2023-03-28T01:51:49.196Z,1.21
2023-03-28T01:52:49.182Z,1.19
2023-03-28T01:53:49.208Z,1.18
2023-03-28T01:54:49.170Z,1.16
2023-03-28T01:55:49.140Z,1.15
2023-03-28T01:56:49.295Z,1.14
2023-03-28T01:57:49.202Z,1.14
2023-03-28T01:58:49.133Z,1.12
2023-03-28T01:59:49.115Z,1.10
2023-03-28T02:00:49.101Z,1.08
2023-03-28T02:01:49.084Z,1.08
2023-03-28T02:02:49.287Z,1.06
2023-03-28T02:03:49.082Z,1.07
2023-03-28T02:04:49.088Z,1.06
2023-03-28T02:05:49.038Z,1.04
2023-03-28T02:06:49.052Z,1.08
2023-03-28T02:07:49.044Z,1.08
2023-03-28T02:08:49.062Z,1.07
2023-03-28T02:09:49.027Z,1.07
2023-03-28T02:10:49.023Z,1.04
2023-03-28T02:11:48.992Z,1.04
2023-03-28T02:12:49.009Z,1.03
2023-03-28T02:13:49.018Z,1.06
2023-03-28T02:14:49.008Z,1.06
2023-03-28T02:15:48.957Z,1.04
2023-03-28T02:16:48.965Z,1.00
2023-03-28T02:17:48.937Z,1.01
2023-03-28T02:18:48.934Z,0.98
2023-03-28T02:19:48.899Z,0.97
2023-03-28T02:20:48.900Z,0.94
2023-03-28T02:21:48.921Z,0.92
2023-03-28T02:22:48.879Z,0.92
2023-03-28T02:23:48.911Z,0.89
2023-03-28T02:24:48.880Z,0.89
2023-03-28T02:25:48.840Z,0.86
2023-03-28T02:26:48.842Z,0.86
2023-03-28T02:27:48.825Z,0.86
2023-03-28T02:28:48.852Z,0.83
2023-03-28T02:29:48.802Z,0.82
2023-03-28T02:30:48.805Z,0.82
2023-03-28T02:31:48.813Z,0.79
2023-03-28T02:32:48.864Z,0.76
2023-03-28T02:33:48.784Z,0.75
2023-03-28T02:34:48.795Z,0.72
2023-03-28T02:35:48.809Z,0.70
2023-03-28T02:36:48.833Z,0.65
2023-03-28T02:37:48.735Z,0.57
2023-03-28T02:38:48.747Z,0.53
2023-03-28T02:39:48.725Z,0.58
2023-03-28T02:40:48.694Z,0.60
2023-03-28T02:41:48.690Z,0.58
2023-03-28T02:42:48.696Z,0.52
2023-03-28T02:43:48.688Z,0.52
2023-03-28T02:44:48.666Z,0.53
2023-03-28T02:45:48.725Z,0.53
2023-03-28T02:46:48.641Z,0.52
2023-03-28T02:47:48.676Z,0.57
2023-03-28T02:48:48.646Z,0.57
2023-03-28T02:49:50.843Z,0.60
2023-03-28T02:50:48.596Z,0.60
2023-03-28T02:51:48.598Z,0.57
2023-03-28T02:52:48.582Z,0.57
2023-03-28T02:53:48.619Z,0.53
2023-03-28T02:54:48.563Z,0.51
2023-03-28T02:55:48.555Z,0.51
2023-03-28T02:56:48.585Z,0.48
2023-03-28T02:57:48.553Z,0.46
2023-03-28T02:58:48.541Z,0.43
2023-03-28T02:59:48.502Z,0.41
2023-03-28T03:00:48.506Z,0.38
2023-03-28T03:01:48.520Z,0.36
2023-03-28T03:02:48.536Z,0.34
2023-03-28T03:03:48.511Z,0.38
2023-03-28T03:04:48.463Z,0.33
2023-03-28T03:05:48.505Z,0.33
2023-03-28T03:06:48.504Z,0.34
2023-03-28T03:07:48.461Z,0.33
2023-03-28T03:08:48.436Z,0.31
2023-03-28T03:09:48.412Z,0.30
2023-03-28T03:13:46.639Z,0.24
2023-03-28T03:14:13.237Z,0.24
2023-03-28T03:18:49.358Z,0.27
2023-03-28T03:19:50.324Z,0.24
2023-03-28T03:20:50.370Z,0.21
2023-03-28T03:21:50.308Z,0.21
2023-03-28T03:22:50.293Z,0.16
2023-03-28T03:23:50.317Z,0.18
2023-03-28T03:24:50.297Z,0.15
2023-03-28T03:25:50.283Z,0.15
2023-03-28T03:26:50.247Z,0.15
2023-03-28T03:27:50.257Z,0.13
2023-03-28T03:28:50.298Z,0.10
2023-03-28T03:29:50.218Z,0.07
2023-03-28T03:30:50.226Z,0.03
2023-03-28T03:31:50.230Z,0.03
2023-03-28T03:32:50.219Z,0.03
2023-03-28T03:33:50.289Z,0.00
2023-03-28T03:34:50.178Z,-0.01
2023-03-28T03:35:50.229Z,-0.01
2023-03-28T03:36:50.156Z,-0.06
2023-03-28T03:37:50.142Z,-0.11
2023-03-28T03:38:50.156Z,-0.08
2023-03-28T03:39:50.148Z,-0.08
2023-03-28T03:40:50.124Z,-0.06
2023-03-28T03:41:50.101Z,-0.09
2023-03-28T03:42:50.181Z,-0.12
2023-03-28T03:43:50.091Z,-0.11
2023-03-28T03:44:50.061Z,-0.12
2023-03-28T03:45:50.107Z,-0.15
2023-03-28T03:46:50.063Z,-0.16
2023-03-28T03:47:50.087Z,-0.08
2023-03-28T03:48:50.540Z,-0.06
2023-03-28T03:49:50.027Z,-0.06
2023-03-28T03:50:50.026Z,-0.05
2023-03-28T03:51:49.994Z,-0.04
2023-03-28T03:52:49.984Z,-0.04
2023-03-28T03:53:49.999Z,-0.01
2023-03-28T03:54:49.975Z,-0.05
2023-03-28T03:55:49.953Z,-0.01
2023-03-28T03:56:49.983Z,-0.04
2023-03-28T03:57:49.932Z,-0.01
2023-03-28T03:58:49.955Z,-0.01
2023-03-28T03:59:49.902Z,-0.05
2023-03-28T04:00:49.921Z,-0.05
2023-03-28T04:01:49.947Z,-0.04
2023-03-28T04:02:49.984Z,-0.05
2023-03-28T04:03:49.907Z,-0.06
2023-03-28T04:04:49.885Z,-0.08
2023-03-28T04:05:49.848Z,-0.12
2023-03-28T04:06:49.853Z,-0.15
2023-03-28T04:07:49.834Z,-0.18
2023-03-28T04:08:49.899Z,-0.19
2023-03-28T04:09:49.806Z,-0.18
2023-03-28T04:10:49.801Z,-0.18
2023-03-28T04:11:49.799Z,-0.16
2023-03-28T04:12:49.872Z,-0.22
2023-03-28T04:13:49.800Z,-0.22
2023-03-28T04:14:49.798Z,-0.24
2023-03-28T04:15:50.386Z,-0.24
2023-03-28T04:16:49.758Z,-0.33
2023-03-28T04:17:49.790Z,-0.36
2023-03-28T04:18:49.748Z,-0.37
2023-03-28T04:19:49.703Z,-0.39
2023-03-28T04:20:49.705Z,-0.39
2023-03-28T04:21:49.691Z,-0.39
2023-03-28T04:22:49.679Z,-0.34
2023-03-28T04:23:49.697Z,-0.31
2023-03-28T04:24:49.678Z,-0.26
2023-03-28T04:25:49.645Z,-0.29
2023-03-28T04:26:49.706Z,-0.30
2023-03-28T04:27:49.660Z,-0.31
2023-03-28T04:28:49.672Z,-0.24
2023-03-28T04:29:49.663Z,-0.26
2023-03-28T04:30:49.620Z,-0.27
2023-03-28T04:31:49.875Z,-0.29
2023-03-28T04:32:49.775Z,-0.27
2023-03-28T04:33:49.606Z,-0.23
2023-03-28T04:34:49.513Z,-0.24
2023-03-28T04:35:49.537Z,-0.27
2023-03-28T04:36:49.492Z,-0.30
2023-03-28T04:37:49.495Z,-0.33
2023-03-28T04:38:49.487Z,-0.34
2023-03-28T04:39:49.466Z,-0.36
2023-03-28T04:40:49.465Z,-0.41
2023-03-28T04:41:49.513Z,-0.44
2023-03-28T04:42:49.495Z,-0.48
2023-03-28T04:43:49.431Z,-0.52
2023-03-28T04:44:49.406Z,-0.54
2023-03-28T04:45:49.445Z,-0.55
2023-03-28T04:46:49.399Z,-0.54
2023-03-28T04:47:49.435Z,-0.52
2023-03-28T04:48:49.401Z,-0.51
2023-03-28T04:49:49.372Z,-0.57
2023-03-28T04:50:49.365Z,-0.57
2023-03-28T04:51:49.357Z,-0.60
2023-03-28T04:52:49.333Z,-0.62
2023-03-28T04:53:49.436Z,-0.62
2023-03-28T04:54:49.323Z,-0.60
2023-03-28T04:55:49.377Z,-0.57
2023-03-28T04:56:49.420Z,-0.52
2023-03-28T04:57:49.299Z,-0.51
2023-03-28T04:58:49.307Z,-0.45
2023-03-28T04:59:49.381Z,-0.45
2023-03-28T05:00:49.277Z,-0.44
2023-03-28T05:01:49.528Z,-0.41
2023-03-28T05:02:49.345Z,-0.41
2023-03-28T05:03:49.311Z,-0.44
2023-03-28T05:04:49.212Z,-0.42
2023-03-28T05:05:49.206Z,-0.45
2023-03-28T05:06:49.193Z,-0.45
2023-03-28T05:07:49.182Z,-0.45
2023-03-28T05:08:50.178Z,-0.44
2023-03-28T05:09:49.175Z,-0.44
2023-03-28T05:10:49.155Z,-0.45
2023-03-28T05:11:49.148Z,-0.45
2023-03-28T05:12:49.147Z,-0.47
2023-03-28T05:13:49.188Z,-0.47
2023-03-28T05:14:49.097Z,-0.47
2023-03-28T05:15:49.087Z,-0.51
2023-03-28T05:16:49.125Z,-0.48
2023-03-28T05:17:49.138Z,-0.48
2023-03-28T05:18:49.097Z,-0.48
2023-03-28T05:19:49.056Z,-0.50
2023-03-28T05:20:49.079Z,-0.51
2023-03-28T05:21:49.039Z,-0.51
2023-03-28T05:22:49.029Z,-0.52
2023-03-28T05:23:51.628Z,-0.51
2023-03-28T05:24:49.011Z,-0.51
2023-03-28T05:25:49.001Z,-0.48
2023-03-28T05:26:48.996Z,-0.44
2023-03-28T05:27:48.995Z,-0.41
2023-03-28T05:28:48.985Z,-0.37
2023-03-28T05:29:48.966Z,-0.33
2023-03-28T05:30:48.947Z,-0.33
2023-03-28T05:31:48.972Z,-0.31
2023-03-28T05:32:48.982Z,-0.31
2023-03-28T05:33:49.006Z,-0.30
2023-03-28T05:34:48.930Z,-0.31
2023-03-28T05:35:48.925Z,-0.30
2023-03-28T05:36:48.909Z,-0.30
2023-03-28T05:37:48.870Z,-0.29
2023-03-28T05:38:48.882Z,-0.30
2023-03-28T05:39:48.862Z,-0.27
2023-03-28T05:40:48.879Z,-0.29
2023-03-28T05:41:48.852Z,-0.29
2023-03-28T05:42:48.906Z,-0.29
2023-03-28T05:43:48.894Z,-0.24
2023-03-28T05:44:48.810Z,-0.27
2023-03-28T05:45:48.843Z,-0.31
2023-03-28T05:46:48.801Z,-0.36
2023-03-28T05:47:48.787Z,-0.33
2023-03-28T05:48:49.568Z,-0.33
2023-03-28T05:49:48.764Z,-0.31
2023-03-28T05:50:48.765Z,-0.29
2023-03-28T05:51:48.759Z,-0.24
2023-03-28T05:52:48.799Z,-0.22
2023-03-28T05:53:48.719Z,-0.18
2023-03-28T05:54:50.577Z,-0.12
2023-03-28T05:55:48.688Z,-0.08
2023-03-28T05:56:48.723Z,-0.04
2023-03-28T05:57:48.765Z,-0.04
2023-03-28T05:58:48.716Z,0.00
2023-03-28T05:59:48.692Z,0.06
2023-03-28T06:00:48.705Z,0.12
2023-03-28T06:01:48.669Z,0.21
2023-03-28T06:02:48.703Z,0.25
2023-03-28T06:03:48.720Z,0.57
2023-03-28T06:04:48.722Z,0.79
2023-03-28T06:05:48.583Z,0.86
2023-03-28T06:06:48.584Z,0.83
2023-03-28T06:07:48.587Z,0.80
2023-03-28T06:08:48.595Z,0.80
2023-03-28T06:09:48.544Z,0.80
2023-03-28T06:10:48.564Z,0.79
2023-03-28T06:11:48.535Z,0.75
2023-03-28T06:12:49.357Z,0.71
2023-03-28T06:13:48.560Z,0.70
2023-03-28T06:14:48.503Z,0.75
2023-03-28T06:15:48.491Z,0.75
2023-03-28T06:16:48.505Z,0.76
2023-03-28T06:17:48.529Z,0.78
2023-03-28T06:18:48.513Z,0.80
2023-03-28T06:19:48.529Z,0.83
2023-03-28T06:20:48.437Z,0.88
2023-03-28T06:21:48.442Z,0.94
2023-03-28T06:22:48.420Z,0.97
2023-03-28T06:23:48.430Z,0.98
2023-03-28T06:24:48.392Z,1.00
2023-03-28T06:25:48.388Z,1.03
2023-03-28T06:26:48.388Z,1.06
2023-03-28T06:27:48.391Z,1.08
2023-03-28T06:28:48.379Z,1.10
2023-03-28T06:29:48.369Z,1.16
2023-03-28T06:30:48.346Z,1.18
2023-03-28T06:31:48.381Z,1.22
2023-03-28T06:32:48.341Z,1.25
2023-03-28T06:33:48.334Z,1.29
2023-03-28T06:34:48.319Z,1.39
2023-03-28T06:35:48.333Z,1.46
2023-03-28T06:36:48.294Z,1.47
2023-03-28T06:37:48.273Z,1.52
2023-03-28T06:38:48.292Z,1.55
2023-03-28T06:39:48.282Z,1.57
2023-03-28T06:40:48.265Z,1.60
2023-03-28T06:41:48.246Z,1.62
2023-03-28T06:42:48.269Z,1.65
2023-03-28T06:43:48.222Z,1.68
2023-03-28T06:44:48.209Z,1.71
2023-03-28T06:45:48.200Z,1.73
2023-03-28T06:46:48.240Z,1.79
2023-03-28T06:47:48.190Z,1.89
2023-03-28T06:48:48.194Z,1.91
2023-03-28T06:49:48.152Z,1.93
2023-03-28T06:50:48.145Z,1.93
2023-03-28T06:51:48.143Z,1.94
2023-03-28T06:52:48.141Z,1.83
2023-03-28T06:53:48.121Z,1.80
2023-03-28T06:54:48.636Z,1.85
2023-03-28T06:55:48.095Z,1.85
2023-03-28T06:56:48.141Z,1.85
2023-03-28T06:57:48.070Z,1.83
2023-03-28T06:58:48.074Z,1.80
2023-03-28T06:59:48.068Z,1.80
2023-03-28T07:00:48.059Z,1.85
2023-03-28T07:01:48.192Z,1.97
2023-03-28T07:02:48.142Z,2.08
2023-03-28T07:03:50.688Z,2.15
2023-03-28T07:04:48.007Z,2.20
2023-03-28T07:05:48.020Z,2.26
2023-03-28T07:06:48.016Z,2.26
2023-03-28T07:07:47.967Z,2.34
2023-03-28T07:08:48.010Z,2.37
2023-03-28T07:09:47.966Z,2.33
2023-03-28T07:10:47.996Z,2.30
2023-03-28T07:11:47.948Z,2.30
2023-03-28T07:12:47.938Z,2.37
2023-03-28T07:13:47.922Z,2.41
2023-03-28T07:14:47.889Z,2.46
2023-03-28T07:15:47.877Z,2.49
2023-03-28T07:16:47.974Z,2.48
2023-03-28T07:17:47.911Z,2.44
2023-03-28T07:18:47.907Z,2.45
2023-03-28T07:19:47.834Z,2.49
2023-03-28T07:20:57.961Z,2.45
2023-03-28T07:21:47.908Z,2.52
2023-03-28T07:22:47.806Z,2.46
2023-03-28T07:23:47.837Z,2.41
2023-03-28T07:24:47.789Z,2.46
2023-03-28T07:25:47.877Z,2.53
2023-03-28T07:26:47.791Z,2.58
2023-03-28T07:27:47.762Z,2.61
2023-03-28T07:28:47.769Z,2.69
2023-03-28T07:29:47.749Z,2.77
2023-03-28T07:30:47.760Z,2.88
2023-03-28T07:31:47.793Z,2.97
2023-03-28T07:32:56.735Z,3.05
2023-03-28T07:33:47.744Z,3.10
2023-03-28T07:34:47.696Z,3.10
2023-03-28T07:35:47.719Z,3.02
2023-03-28T07:36:47.694Z,3.03
2023-03-28T07:37:47.669Z,3.18
2023-03-28T07:38:49.310Z,3.28
2023-03-28T07:39:47.634Z,3.33
2023-03-28T07:40:47.647Z,3.34
2023-03-28T07:41:47.628Z,3.40
2023-03-28T07:42:47.623Z,3.47
2023-03-28T07:43:47.666Z,3.53
2023-03-28T07:44:47.591Z,3.57
2023-03-28T07:45:47.657Z,3.58
2023-03-28T07:46:47.568Z,3.62
2023-03-28T07:47:47.595Z,3.67
2023-03-28T07:48:47.575Z,3.72
2023-03-28T07:49:47.587Z,3.78
2023-03-28T07:50:47.557Z,3.89
2023-03-28T07:51:47.590Z,3.83
2023-03-28T07:52:47.573Z,3.83
2023-03-28T07:53:47.542Z,3.82
2023-03-28T07:54:47.553Z,3.78
2023-03-28T07:55:54.228Z,3.79
2023-03-28T07:56:47.587Z,3.83
2023-03-28T07:57:47.479Z,3.89
2023-03-28T07:58:47.544Z,3.94
2023-03-28T07:59:47.437Z,3.94
2023-03-28T08:00:47.429Z,3.90
2023-03-28T08:01:47.431Z,3.67
2023-03-28T08:02:47.614Z,3.68
2023-03-28T08:03:47.492Z,3.62
2023-03-28T08:04:47.389Z,3.65
2023-03-28T08:05:47.458Z,3.71
2023-03-28T08:06:47.386Z,3.85
2023-03-28T08:07:47.363Z,3.96
2023-03-28T08:08:47.407Z,4.00
2023-03-28T08:09:47.361Z,3.94
2023-03-28T08:10:47.328Z,4.03
2023-03-28T08:11:47.331Z,4.10
2023-03-28T08:12:47.307Z,4.14
2023-03-28T08:13:47.337Z,4.14
2023-03-28T08:14:47.287Z,4.03
2023-03-28T08:15:47.320Z,3.83
2023-03-28T08:16:47.295Z,3.71
2023-03-28T08:17:47.359Z,3.75
2023-03-28T08:18:52.393Z,3.72
2023-03-28T08:19:47.264Z,3.79
2023-03-28T08:20:47.234Z,3.88
2023-03-28T08:21:47.220Z,3.98
2023-03-28T08:22:47.218Z,4.01
2023-03-28T08:23:47.337Z,4.00
2023-03-28T08:24:47.214Z,4.07
2023-03-28T08:25:47.188Z,4.19
2023-03-28T08:26:48.752Z,4.16
2023-03-28T08:27:47.204Z,4.16
2023-03-28T08:28:47.225Z,4.18
2023-03-28T08:29:47.161Z,4.26
2023-03-28T08:30:47.149Z,4.26
2023-03-28T08:31:47.170Z,4.32
2023-03-28T08:32:48.807Z,4.21
2023-03-28T08:33:47.164Z,4.10
2023-03-28T08:34:47.100Z,4.03
2023-03-28T08:35:47.100Z,4.00
2023-03-28T08:36:47.097Z,3.97
2023-03-28T08:37:47.096Z,4.00
2023-03-28T08:38:47.069Z,4.08
2023-03-28T08:39:47.103Z,4.22
2023-03-28T08:40:47.028Z,4.40
2023-03-28T08:41:47.043Z,4.51
2023-03-28T08:42:47.024Z,4.61
2023-03-28T08:43:47.047Z,4.47
2023-03-28T08:44:48.462Z,4.37
2023-03-28T08:45:46.990Z,4.42
2023-03-28T08:46:47.033Z,4.40
2023-03-28T08:47:47.006Z,4.44
2023-03-28T08:48:46.970Z,4.59
2023-03-28T08:49:46.954Z,4.67
2023-03-28T08:50:47.019Z,4.72
2023-03-28T08:51:46.980Z,4.83
2023-03-28T08:52:46.921Z,4.96
2023-03-28T08:53:46.924Z,5.13
2023-03-28T08:54:46.915Z,5.12
2023-03-28T08:55:46.896Z,5.07
2023-03-28T08:56:46.932Z,5.13
2023-03-28T08:57:46.864Z,5.09
2023-03-28T08:58:46.880Z,5.16
2023-03-28T08:59:46.846Z,5.27
2023-03-28T09:00:46.929Z,5.34
2023-03-28T09:01:46.877Z,5.25
2023-03-28T09:02:47.658Z,5.22
2023-03-28T09:03:46.911Z,5.16
2023-03-28T09:04:46.808Z,5.19
2023-03-28T09:05:46.892Z,5.30
2023-03-28T09:06:46.784Z,5.31
2023-03-28T09:07:47.385Z,5.12
2023-03-28T09:08:46.764Z,5.07
2023-03-28T09:09:46.760Z,5.20
2023-03-28T09:10:46.760Z,5.22
2023-03-28T09:11:46.723Z,4.98
2023-03-28T09:12:47.381Z,5.01
2023-03-28T09:13:46.736Z,5.19
2023-03-28T09:14:46.763Z,5.17
2023-03-28T09:15:46.702Z,5.19
2023-03-28T09:16:46.711Z,5.16
2023-03-28T09:17:47.247Z,5.09
2023-03-28T09:18:46.676Z,5.02
2023-03-28T09:19:48.814Z,5.01
2023-03-28T09:20:46.635Z,5.02
2023-03-28T09:21:46.673Z,5.10
2023-03-28T09:22:46.623Z,5.12
2023-03-28T09:23:46.610Z,5.02
2023-03-28T09:24:46.614Z,5.01
2023-03-28T09:25:46.597Z,4.99
2023-03-28T09:26:46.573Z,4.94
2023-03-28T09:27:46.612Z,4.92
2023-03-28T09:28:46.568Z,4.91
2023-03-28T09:29:46.610Z,4.91
2023-03-28T09:30:46.541Z,4.95
2023-03-28T09:31:46.573Z,4.99
2023-03-28T09:32:46.571Z,5.01
2023-03-28T09:33:46.513Z,5.07
2023-03-28T09:34:46.499Z,5.04
2023-03-28T09:35:46.536Z,5.04
2023-03-28T09:36:49.813Z,5.02
2023-03-28T09:37:46.502Z,4.95
2023-03-28T09:38:46.454Z,4.94
2023-03-28T09:39:46.457Z,4.83
2023-03-28T09:40:46.456Z,4.72
2023-03-28T09:41:46.443Z,4.69
2023-03-28T09:42:47.213Z,4.75
2023-03-28T09:43:46.402Z,4.92
2023-03-28T09:44:54.131Z,5.01
2023-03-28T09:45:46.481Z,5.25
2023-03-28T09:46:46.402Z,5.40
2023-03-28T09:47:47.325Z,5.31
2023-03-28T09:48:46.452Z,5.38
2023-03-28T09:49:46.368Z,5.48
2023-03-28T09:50:46.347Z,5.63
2023-03-28T09:51:46.334Z,5.71
2023-03-28T09:52:47.219Z,5.70
2023-03-28T09:53:46.441Z,5.71
2023-03-28T09:54:46.309Z,5.86
2023-03-28T09:55:57.917Z,5.75
2023-03-28T09:56:46.317Z,5.64
2023-03-28T09:57:46.302Z,5.73
2023-03-28T09:58:46.267Z,5.83
2023-03-28T09:59:46.292Z,5.96
2023-03-28T10:00:46.227Z,5.91
2023-03-28T10:01:46.420Z,5.82
2023-03-28T10:02:46.232Z,5.86
2023-03-28T10:03:46.220Z,5.77
2023-03-28T10:04:46.229Z,5.71
2023-03-28T10:05:46.187Z,5.70
2023-03-28T10:06:46.185Z,5.66
2023-03-28T10:07:46.173Z,5.57
2023-03-28T10:08:46.170Z,5.60
2023-03-28T10:09:46.190Z,5.66
2023-03-28T10:10:46.168Z,5.71
2023-03-28T10:11:46.117Z,5.68
2023-03-28T10:12:46.119Z,5.57
2023-03-28T10:13:46.116Z,5.57
2023-03-28T10:14:46.119Z,5.63
2023-03-28T10:15:46.122Z,5.66
2023-03-28T10:16:46.090Z,5.56
2023-03-28T10:17:46.100Z,5.49
2023-03-28T10:18:46.045Z,5.68
2023-03-28T10:19:46.064Z,5.71
2023-03-28T10:20:46.038Z,5.74
2023-03-28T10:21:46.037Z,5.77
2023-03-28T10:22:46.055Z,5.81
2023-03-28T10:23:46.057Z,5.86
2023-03-28T10:24:46.059Z,5.88
2023-03-28T10:25:46.101Z,5.86
2023-03-28T10:26:46.050Z,5.86
2023-03-28T10:27:45.964Z,5.81
2023-03-28T10:28:46.040Z,5.74
2023-03-28T10:29:45.965Z,5.74
2023-03-28T10:30:45.946Z,5.82
2023-03-28T10:31:45.975Z,5.96
2023-03-28T10:32:45.997Z,6.16
2023-03-28T10:33:45.907Z,6.46
2023-03-28T10:34:45.905Z,6.72
2023-03-28T10:35:45.937Z,6.81
2023-03-28T10:36:45.871Z,6.91
2023-03-28T10:37:45.870Z,7.12
2023-03-28T10:38:45.874Z,6.98
2023-03-28T10:39:45.869Z,6.90
2023-03-28T10:40:45.939Z,6.69
2023-03-28T10:41:45.856Z,6.51
2023-03-28T10:42:45.818Z,6.48
2023-03-28T10:43:45.798Z,6.35
2023-03-28T10:44:45.807Z,6.40
2023-03-28T10:45:45.859Z,6.41
2023-03-28T10:46:45.877Z,6.43
2023-03-28T10:47:45.776Z,6.47
2023-03-28T10:48:45.750Z,6.38
2023-03-28T10:49:45.784Z,6.29
2023-03-28T10:50:45.726Z,6.38
2023-03-28T10:51:45.755Z,6.53
2023-03-28T10:52:45.756Z,6.63
2023-03-28T10:53:45.709Z,6.61
2023-03-28T10:54:45.730Z,6.80
2023-03-28T10:55:45.678Z,7.01
2023-03-28T10:56:45.690Z,7.08
2023-03-28T10:57:46.368Z,7.38
2023-03-28T10:58:45.653Z,7.47
2023-03-28T10:59:45.716Z,7.41
2023-03-28T11:00:45.636Z,7.49
2023-03-28T11:01:45.659Z,7.67
2023-03-28T11:02:45.742Z,7.75
2023-03-28T11:03:45.651Z,7.87
2023-03-28T11:04:45.616Z,8.10
2023-03-28T11:05:54.999Z,8.10
2023-03-28T11:06:45.591Z,8.21
2023-03-28T11:07:45.596Z,8.28
2023-03-28T11:08:45.566Z,8.42
2023-03-28T11:09:45.546Z,8.58
2023-03-28T11:10:45.517Z,8.50
2023-03-28T11:11:45.519Z,8.30
2023-03-28T11:12:54.124Z,8.22
2023-03-28T11:13:45.498Z,8.18
2023-03-28T11:14:45.554Z,7.99
2023-03-28T11:15:45.500Z,8.03
2023-03-28T11:16:45.484Z,8.14
2023-03-28T11:17:46.260Z,8.22
2023-03-28T11:18:45.457Z,8.33
2023-03-28T11:19:45.454Z,8.40
2023-03-28T11:20:45.414Z,8.28
2023-03-28T11:21:45.411Z,8.10
2023-03-28T11:22:55.277Z,8.12
2023-03-28T11:23:45.442Z,8.07
2023-03-28T11:24:45.372Z,7.93
2023-03-28T11:25:45.398Z,8.00
2023-03-28T11:26:45.352Z,8.12
2023-03-28T11:27:45.358Z,8.12
2023-03-28T11:28:46.574Z,8.10
2023-03-28T11:29:45.322Z,8.11
2023-03-28T11:30:45.321Z,8.20
2023-03-28T11:31:45.339Z,8.25
2023-03-28T11:32:45.351Z,8.17
2023-03-28T11:33:45.295Z,8.18
2023-03-28T11:34:45.294Z,8.18
2023-03-28T11:35:45.325Z,8.10
2023-03-28T11:36:45.259Z,8.10
2023-03-28T11:37:45.243Z,8.02
2023-03-28T11:38:45.256Z,7.96
2023-03-28T11:39:45.216Z,8.07
2023-03-28T11:40:45.233Z,8.10
2023-03-28T11:41:45.240Z,7.94
2023-03-28T11:42:45.193Z,7.84
2023-03-28T11:43:45.197Z,7.79
2023-03-28T11:44:45.279Z,7.85
2023-03-28T11:45:51.867Z,7.90
2023-03-28T11:46:45.160Z,7.99
2023-03-28T11:47:45.189Z,7.97
2023-03-28T11:48:45.117Z,7.85
2023-03-28T11:49:45.119Z,7.85
2023-03-28T11:50:45.152Z,7.74
2023-03-28T11:51:45.089Z,7.67
2023-03-28T11:52:45.072Z,7.66
2023-03-28T11:53:45.080Z,7.72
2023-03-28T11:54:45.091Z,7.78
2023-03-28T11:55:45.122Z,7.74
2023-03-28T11:56:45.118Z,7.74
2023-03-28T11:57:45.031Z,7.72
2023-03-28T11:58:45.049Z,7.66
2023-03-28T11:59:45.034Z,7.75
2023-03-28T12:00:45.070Z,7.87
2023-03-28T12:01:44.984Z,7.96
2023-03-28T12:02:45.022Z,7.99
2023-03-28T12:03:45.014Z,7.92
2023-03-28T12:04:44.950Z,7.89
2023-03-28T12:05:44.968Z,7.92
2023-03-28T12:06:55.891Z,8.02
2023-03-28T12:07:44.929Z,8.08
2023-03-28T12:08:44.923Z,8.20
2023-03-28T12:09:44.921Z,8.18
2023-03-28T12:10:44.907Z,8.22
2023-03-28T12:11:44.869Z,8.15
2023-03-28T12:12:44.862Z,8.04
2023-03-28T12:13:46.751Z,7.94
2023-03-28T12:14:44.845Z,7.89
2023-03-28T12:15:44.872Z,7.85
2023-03-28T12:16:44.894Z,7.79
2023-03-28T12:17:44.859Z,7.71
2023-03-28T12:18:44.841Z,7.59
2023-03-28T12:19:44.806Z,7.60
2023-03-28T12:20:44.896Z,7.79
2023-03-28T12:21:44.804Z,8.02
2023-03-28T12:22:44.776Z,8.12
2023-03-28T12:23:44.758Z,8.26
2023-03-28T12:24:44.747Z,8.25
2023-03-28T12:25:44.805Z,8.26
2023-03-28T12:26:44.774Z,8.30
2023-03-28T12:27:44.707Z,8.44
2023-03-28T12:28:44.711Z,8.55
2023-03-28T12:29:44.710Z,8.71
2023-03-28T12:30:44.738Z,8.72
2023-03-28T12:31:44.683Z,8.73
2023-03-28T12:32:44.703Z,8.75
2023-03-28T12:33:44.673Z,8.76
2023-03-28T12:34:44.679Z,8.73
2023-03-28T12:35:44.641Z,8.68
2023-03-28T12:36:44.616Z,8.68
2023-03-28T12:37:44.682Z,8.78
2023-03-28T12:38:44.593Z,8.81
2023-03-28T12:39:44.626Z,8.91
2023-03-28T12:40:44.584Z,9.12
2023-03-28T12:41:44.567Z,9.24
2023-03-28T12:42:44.563Z,9.13
2023-03-28T12:43:44.574Z,9.21
2023-03-28T12:44:44.535Z,9.32
2023-03-28T12:45:44.548Z,9.38
2023-03-28T12:46:44.517Z,9.25
2023-03-28T12:47:44.533Z,9.42
2023-03-28T12:48:44.503Z,9.52
2023-03-28T12:49:44.516Z,9.35
2023-03-28T12:50:44.517Z,9.39
2023-03-28T12:51:44.459Z,9.50
2023-03-28T12:52:44.534Z,9.63
2023-03-28T12:53:44.437Z,9.71
2023-03-28T12:54:44.434Z,9.66
2023-03-28T12:55:44.548Z,9.45
2023-03-28T12:56:44.443Z,9.45
2023-03-28T12:57:44.461Z,9.42
2023-03-28T12:58:44.414Z,9.40
2023-03-28T12:59:44.370Z,9.25
2023-03-28T13:00:44.401Z,9.20
2023-03-28T13:01:44.484Z,9.27
2023-03-28T13:02:44.361Z,9.28
2023-03-28T13:03:44.351Z,9.16
2023-03-28T13:04:44.406Z,9.12
2023-03-28T13:05:44.374Z,8.94
2023-03-28T13:06:44.301Z,8.83
2023-03-28T13:07:44.416Z,8.68
2023-03-28T13:08:45.922Z,8.51
2023-03-28T13:09:44.267Z,8.35
2023-03-28T13:10:44.299Z,8.51
2023-03-28T13:11:44.256Z,8.72
2023-03-28T13:12:44.267Z,8.84
2023-03-28T13:13:44.230Z,8.90
2023-03-28T13:14:44.227Z,9.02
2023-03-28T13:15:44.446Z,9.10
2023-03-28T13:16:44.217Z,9.21
2023-03-28T13:17:44.345Z,9.15
2023-03-28T13:18:44.223Z,9.02
2023-03-28T13:19:44.193Z,9.02